This is the latest recevied weather packets stored in our database for station/object TG8AKV-17. If no packets are shown the sender has not sent any weather packets the latest 10 day(s).
| Time | Temp. | Humidity | Pressure | Rain* | Wind** | Luminosity | Snow |
|---|---|---|---|---|---|---|---|
| 1777871284 | 12.22° C | 94% | 1019 hPa | 0 mm | - | - | - |
| 1777870683 | 12.22° C | 94% | 1019 hPa | 0 mm | - | - | - |
| 1777870082 | 12.22° C | 94% | 1019 hPa | 0 mm | - | - | - |
| 1777869482 | 13.33° C | 94% | 1019 hPa | 0 mm | - | - | - |
| 1777868881 | 13.33° C | 94% | 1019 hPa | 0 mm | - | - | - |
| 1777868281 | 13.33° C | 93% | 1019 hPa | 0 mm | - | - | - |
| 1777867680 | 13.33° C | 93% | 1019 hPa | 0 mm | - | - | - |
| 1777867079 | 13.33° C | 94% | 1019 hPa | 0 mm | - | - | - |
| 1777866479 | 13.33° C | 94% | 1019 hPa | 0 mm | - | - | - |
| 1777865278 | 12.78° C | 94% | 1018 hPa | 0 mm | - | - | - |
| 1777847259 | 16.11° C | 92% | 1015 hPa | 0.25 mm | - | - | - |
| 1777846064 | 17.22° C | 90% | 1015 hPa | 0.25 mm | - | - | - |
| 1777845457 | 17.78° C | 88% | 1015 hPa | 0 mm | - | - | - |
| 1777844857 | 18.33° C | 83% | 1015 hPa | 0.25 mm | - | - | - |
| 1777844256 | 19.44° C | 74% | 1015 hPa | 0 mm | - | - | - |
| 1777843055 | 17.78° C | 84% | 1015 hPa | 0 mm | - | - | - |
| 1777842454 | 17.78° C | 85% | 1015 hPa | 0.51 mm | - | - | - |
| 1777841854 | 18.33° C | 81% | 1015 hPa | 0 mm | - | - | - |
| 1777840653 | 18.89° C | 75% | 1016 hPa | 0 mm | - | - | - |
| 1777840052 | 18.89° C | 75% | 1016 hPa | 0 mm | - | - | - |
| 1777839452 | 22.78° C | 53% | 1016 hPa | 0 mm | - | - | - |
| 1777838851 | 22.78° C | 53% | 1016 hPa | 0 mm | - | - | - |
| 1777838251 | 21.67° C | 55% | 1016 hPa | 0 mm | - | - | - |
| 1777837050 | 21.67° C | 54% | 1016 hPa | 0 mm | - | - | - |
| 1777836449 | 21.67° C | 53% | 1016 hPa | 0 mm | - | - | - |
* Rain latest hour (hover to see other rain measurements)
** Current wind speed in m/s (hover to see current wind gust speed)